Time;durP1;ratioP1;P1;durP2;ratioP2;P2;SDS_P1;SDS_P2;PMS_P1;PMS_P2;Temp;Humidity;BMP_temperature;BMP_pressure;BME280_temperature;BME280_humidity;BME280_pressure;Samples;Min_cycle;Max_cycle;Signal;HPM_P1;HPM_P2
2023/09/23 00:00:56;;;;;;;;;0.00;0.00;;;;;16.14;69.08;100721.59;5039076;28;45291;-70
2023/09/23 00:03:25;;;;;;;;;0.00;0.00;;;;;16.08;68.73;100712.03;5047895;28;45411;-70
2023/09/23 00:05:52;;;;;;;;;2.50;0.75;;;;;16.23;69.19;100739.94;5028892;28;45539;-70
2023/09/23 00:08:18;;;;;;;;;0.00;0.00;;;;;16.09;69.14;100723.69;5036106;28;45502;-70
2023/09/23 00:10:45;;;;;;;;;0.75;0.75;;;;;16.25;69.20;100745.22;5038731;28;45524;-70
2023/09/23 00:13:10;;;;;;;;;1.00;0.25;;;;;16.05;69.36;100714.03;5045693;28;45697;-70
2023/09/23 00:15:40;;;;;;;;;0.00;0.00;;;;;16.29;69.39;100753.06;5026285;28;45339;-70
2023/09/23 00:18:06;;;;;;;;;0.00;0.00;;;;;16.10;69.62;100736.19;5039101;28;45466;-70
2023/09/23 00:20:32;;;;;;;;;0.25;0.25;;;;;16.25;69.44;100754.16;5038172;28;45853;-70
2023/09/23 00:22:58;;;;;;;;;0.25;0.25;;;;;16.14;69.38;100734.19;5044714;28;46053;-70
2023/09/23 00:25:23;;;;;;;;;0.00;0.00;;;;;16.14;69.21;100736.88;5038521;28;45430;-70
2023/09/23 00:27:49;;;;;;;;;0.50;0.50;;;;;16.29;69.69;100761.13;5038391;28;45506;-70
2023/09/23 00:30:14;;;;;;;;;2.25;1.00;;;;;16.10;69.89;100734.38;5038616;28;45387;-70
2023/09/23 00:32:41;;;;;;;;;0.00;0.00;;;;;16.13;69.76;100746.78;5037025;28;47262;-70
2023/09/23 00:35:10;;;;;;;;;0.25;0.25;;;;;16.24;69.48;100765.91;5038396;28;45610;-70
2023/09/23 00:37:36;;;;;;;;;0.00;0.00;;;;;16.02;69.77;100724.97;5042100;28;45589;-70
2023/09/23 00:40:03;;;;;;;;;0.00;0.00;;;;;16.17;69.72;100753.75;5054453;28;45454;-70
2023/09/23 00:42:28;;;;;;;;;0.00;0.00;;;;;16.17;69.75;100756.44;5043789;28;47753;-70
2023/09/23 00:44:54;;;;;;;;;1.00;1.00;;;;;16.17;69.35;100752.88;5046705;28;45425;-70
2023/09/23 00:47:19;;;;;;;;;0.50;0.50;;;;;16.16;69.83;100743.94;5042125;28;45436;-70
2023/09/23 00:49:46;;;;;;;;;1.00;0.00;;;;;16.28;69.55;100767.47;5052895;28;45390;-70
2023/09/23 00:52:15;;;;;;;;;1.00;1.00;;;;;16.12;69.30;100753.13;5050289;28;46789;-70
2023/09/23 00:54:49;;;;;;;;;1.00;1.00;;;;;16.07;69.47;100748.00;5041756;28;45660;-70
2023/09/23 00:57:17;;;;;;;;;1.50;1.00;;;;;15.92;70.02;100728.19;5040610;28;45499;-70
2023/09/23 00:59:43;;;;;;;;;2.75;0.25;;;;;16.21;70.02;100778.69;5042690;28;45749;-70
2023/09/23 01:02:12;;;;;;;;;1.00;1.00;;;;;16.22;69.95;100777.72;5050796;28;45604;-70
2023/09/23 01:04:38;;;;;;;;;1.75;1.00;;;;;16.03;70.03;100754.50;5041084;28;45568;-70
2023/09/23 01:07:04;;;;;;;;;1.00;1.00;;;;;15.97;69.99;100748.59;5031090;28;45620;-70
2023/09/23 01:09:33;;;;;;;;;2.00;1.00;;;;;15.99;69.93;100750.25;5057332;28;45532;-70
2023/09/23 01:12:00;;;;;;;;;3.00;1.00;;;;;16.04;69.97;100768.84;5060946;28;47033;-70
2023/09/23 01:14:25;;;;;;;;;1.00;1.00;;;;;15.91;70.04;100756.03;5048378;28;45558;-70
2023/09/23 01:16:57;;;;;;;;;2.00;2.00;;;;;15.90;70.31;100748.03;5039646;28;45391;-70
2023/09/23 01:19:26;;;;;;;;;1.75;1.00;;;;;15.88;70.41;100744.56;5023359;28;45700;-70
2023/09/23 01:21:54;;;;;;;;;0.75;0.75;;;;;15.87;70.28;100748.22;5046637;28;46374;-70
2023/09/23 01:24:19;;;;;;;;;2.00;2.00;;;;;15.92;70.42;100765.88;5041384;28;45559;-70
2023/09/23 01:26:51;;;;;;;;;1.00;0.50;;;;;15.93;70.46;100764.03;5040954;28;45456;-70
2023/09/23 01:29:23;;;;;;;;;2.00;2.00;;;;;15.90;70.55;100761.50;5030170;28;45571;-70
2023/09/23 01:32:22;;;;;;;;;1.00;1.00;;;;;15.94;70.68;100773.88;5047121;28;46191;-70
2023/09/23 01:34:48;;;;;;;;;1.00;1.00;;;;;15.91;70.29;100772.19;5036991;28;45445;-70
2023/09/23 01:37:14;;;;;;;;;1.00;1.00;;;;;15.91;70.73;100769.50;5043532;28;45490;-70
2023/09/23 01:39:41;;;;;;;;;1.25;0.25;;;;;15.85;71.17;100771.66;5043284;28;45523;-70
2023/09/23 01:42:07;;;;;;;;;0.25;0.25;;;;;15.73;70.99;100754.31;5051333;28;46042;-70
2023/09/23 01:44:33;;;;;;;;;0.00;0.00;;;;;15.79;70.73;100766.63;5046966;28;45443;-70
2023/09/23 01:46:58;;;;;;;;;0.00;0.00;;;;;15.82;71.06;100770.00;5040460;28;45486;-70
2023/09/23 01:49:24;;;;;;;;;1.00;1.00;;;;;15.88;71.22;100779.56;5056280;28;45595;-70
2023/09/23 01:51:49;;;;;;;;;2.00;0.00;;;;;15.89;71.19;100792.94;5044358;28;45664;-70
2023/09/23 01:54:16;;;;;;;;;2.00;1.00;;;;;15.77;71.42;100771.19;5041060;28;45501;-70
2023/09/23 01:56:42;;;;;;;;;1.00;1.00;;;;;15.73;71.16;100767.78;5022672;28;45595;-70
2023/09/23 01:59:09;;;;;;;;;0.00;0.00;;;;;15.95;71.26;100815.97;5045754;28;45280;-70
2023/09/23 02:01:35;;;;;;;;;0.50;0.50;;;;;15.76;71.38;100781.09;5040832;28;45526;-70
2023/09/23 02:04:01;;;;;;;;;1.50;1.00;;;;;15.86;71.29;100803.88;5032345;28;46026;-70
2023/09/23 02:06:30;;;;;;;;;1.00;1.00;;;;;15.71;71.44;100773.22;5040842;28;45366;-70
2023/09/23 02:08:57;;;;;;;;;0.00;0.00;;;;;15.71;71.84;100781.31;5041437;28;46322;-70
2023/09/23 02:11:22;;;;;;;;;1.00;1.00;;;;;15.71;71.51;100789.38;5029935;28;47266;-70
2023/09/23 02:13:48;;;;;;;;;0.00;0.00;;;;;15.70;71.51;100792.16;5060555;28;45307;-70
2023/09/23 02:16:13;;;;;;;;;0.50;0.50;;;;;15.67;71.65;100786.94;5060921;28;45554;-70
2023/09/23 02:18:39;;;;;;;;;1.00;1.00;;;;;15.68;71.65;100784.16;5041122;28;45403;-70
2023/09/23 02:21:07;;;;;;;;;2.25;1.25;;;;;15.70;71.67;100801.13;5042232;28;48518;-70
2023/09/23 02:23:32;;;;;;;;;0.00;0.00;;;;;15.76;71.39;100799.06;5060482;28;45592;-70
2023/09/23 02:26:01;;;;;;;;;0.00;0.00;;;;;15.68;71.57;100804.81;5060835;28;45399;-70
2023/09/23 02:28:26;;;;;;;;;0.00;0.00;;;;;15.66;71.39;100804.91;5050575;28;45516;-69
2023/09/23 02:30:52;;;;;;;;;1.00;1.00;;;;;15.53;71.79;100791.22;5050266;28;46167;-70
2023/09/23 02:33:17;;;;;;;;;0.50;0.50;;;;;15.66;71.74;100812.13;5022383;28;45253;-70
2023/09/23 02:35:42;;;;;;;;;0.25;0.00;;;;;15.53;71.52;100790.34;5040432;28;45306;-70
2023/09/23 02:38:08;;;;;;;;;0.00;0.00;;;;;15.70;71.51;100816.38;5040312;28;45575;-70
2023/09/23 02:40:34;;;;;;;;;0.00;0.00;;;;;15.86;71.57;100846.94;5047692;28;46255;-70
2023/09/23 02:42:59;;;;;;;;;0.00;0.00;;;;;15.84;71.36;100854.25;5046000;28;45639;-70
2023/09/23 02:45:25;;;;;;;;;1.00;1.00;;;;;15.79;71.33;100834.78;5040257;28;45456;-70
2023/09/23 02:47:52;;;;;;;;;0.00;0.00;;;;;15.83;71.23;100844.41;5040161;28;45591;-70
2023/09/23 02:50:18;;;;;;;;;0.00;0.00;;;;;15.75;71.38;100825.06;5040150;28;45455;-70
2023/09/23 02:52:44;;;;;;;;;1.25;0.50;;;;;15.75;71.45;100825.06;5035092;28;45383;-70
2023/09/23 02:55:14;;;;;;;;;1.50;0.00;;;;;15.63;71.23;100809.56;5041862;28;45493;-70
2023/09/23 02:57:41;;;;;;;;;0.00;0.00;;;;;15.90;71.19;100853.94;5060013;28;45513;-70
2023/09/23 03:03:06;;;;;;;;;2.25;0.00;;;;;15.72;70.74;100836.03;5034512;28;46566;-70
2023/09/23 03:05:38;;;;;;;;;2.25;1.00;;;;;15.93;70.93;100859.13;5041707;28;45403;-70
2023/09/23 03:08:07;;;;;;;;;1.75;0.00;;;;;15.80;70.82;100851.78;5045775;28;45478;-70
2023/09/23 03:10:39;;;;;;;;;0.00;0.00;;;;;15.83;70.95;100849.78;5040885;28;47606;-70
2023/09/23 03:13:05;;;;;;;;;0.00;0.00;;;;;15.95;70.93;100877.03;5056190;28;45914;-70
2023/09/23 03:15:53;;;;;;;;;0.00;0.00;;;;;15.87;70.89;100867.53;5026479;28;45429;-70
2023/09/23 03:18:33;;;;;;;;;0.00;0.00;;;;;15.85;70.92;100872.09;5039655;28;45343;-70
2023/09/23 03:21:12;;;;;;;;;3.00;0.25;;;;;15.70;70.99;100865.69;5027332;28;47322;-70
2023/09/23 03:23:39;;;;;;;;;1.50;1.00;;;;;15.83;71.19;100890.16;5058313;28;45319;-70
2023/09/23 03:26:06;;;;;;;;;0.00;0.00;;;;;15.73;70.92;100878.09;5039942;28;45568;-70
2023/09/23 03:28:34;;;;;;;;;1.25;0.00;;;;;15.69;70.88;100874.72;5042211;28;45444;-70
2023/09/23 03:31:00;;;;;;;;;0.00;0.00;;;;;15.68;70.90;100885.56;5029702;28;48479;-70
2023/09/23 03:33:27;;;;;;;;;1.75;0.00;;;;;15.65;71.26;100885.69;5025729;28;45345;-70
2023/09/23 03:35:53;;;;;;;;;1.00;0.00;;;;;15.78;71.20;100907.50;5048729;28;45321;-70
2023/09/23 03:38:19;;;;;;;;;0.75;0.75;;;;;15.62;71.31;100888.53;5036368;28;45549;-70
2023/09/23 03:41:02;;;;;;;;;0.00;0.00;;;;;15.77;70.91;100916.53;5059674;28;46591;-70
2023/09/23 03:43:28;;;;;;;;;0.00;0.00;;;;;15.57;71.01;100886.13;5053696;28;45553;-70
2023/09/23 03:45:57;;;;;;;;;0.00;0.00;;;;;15.76;71.02;100914.81;5046185;28;45367;-70
2023/09/23 03:48:25;;;;;;;;;1.00;0.00;;;;;15.50;70.70;100881.97;5038831;28;45514;-70
2023/09/23 03:50:52;;;;;;;;;0.00;0.00;;;;;15.49;71.28;100875.72;5037870;28;47246;-70
2023/09/23 03:53:20;;;;;;;;;0.25;0.25;;;;;15.39;71.20;100863.69;5040549;28;45430;-70
2023/09/23 03:55:47;;;;;;;;;2.00;0.25;;;;;15.56;71.04;100898.69;5042936;28;45429;-70
2023/09/23 03:58:13;;;;;;;;;2.00;0.00;;;;;15.56;71.14;100893.28;5039059;28;45475;-70
2023/09/23 04:00:39;;;;;;;;;0.00;0.00;;;;;15.63;71.14;100901.06;5038918;28;45984;-70
2023/09/23 04:03:05;;;;;;;;;0.25;0.00;;;;;15.50;71.01;100881.97;5038331;28;45370;-70
2023/09/23 04:05:31;;;;;;;;;0.00;0.00;;;;;15.55;71.14;100905.03;5044863;28;45422;-70
2023/09/23 04:07:57;;;;;;;;;1.00;0.00;;;;;15.65;71.00;100923.38;5044203;28;45333;-70
2023/09/23 04:10:23;;;;;;;;;1.00;0.00;;;;;15.40;71.34;100891.47;5058488;28;47104;-70
2023/09/23 04:12:49;;;;;;;;;1.00;0.00;;;;;15.39;71.21;100890.59;5058840;28;45265;-70
2023/09/23 04:15:15;;;;;;;;;0.00;0.00;;;;;15.38;71.10;100894.22;5045955;28;46654;-70
2023/09/23 04:17:41;;;;;;;;;0.00;0.00;;;;;15.39;71.18;100893.28;5038749;28;45551;-70
2023/09/23 04:20:11;;;;;;;;;1.00;0.00;;;;;15.42;71.19;100900.31;5038581;28;46419;-70
2023/09/23 04:22:37;;;;;;;;;0.25;0.25;;;;;15.41;71.48;100896.75;5057890;28;45248;-70
2023/09/23 04:25:07;;;;;;;;;0.00;0.00;;;;;15.30;71.34;100894.63;5047697;28;45328;-70
2023/09/23 04:27:33;;;;;;;;;0.25;0.00;;;;;15.17;71.48;100871.97;5038073;28;45501;-69
2023/09/23 04:30:00;;;;;;;;;0.25;0.25;;;;;15.33;71.39;100901.66;5048726;28;45529;-70
2023/09/23 04:32:27;;;;;;;;;0.75;0.00;;;;;15.31;71.57;100904.41;5058657;28;45513;-70
2023/09/23 04:34:52;;;;;;;;;1.00;1.00;;;;;15.53;71.56;100941.00;5057090;28;45414;-70
2023/09/23 04:37:17;;;;;;;;;2.00;0.75;;;;;15.36;71.29;100920.34;5040603;28;45493;-70
2023/09/23 04:39:43;;;;;;;;;1.00;1.00;;;;;15.29;70.97;100905.47;5053187;28;46845;-70
2023/09/23 04:42:09;;;;;;;;;1.00;1.00;;;;;15.27;71.32;100910.00;5038486;28;45413;-70
2023/09/23 04:44:34;;;;;;;;;3.00;1.75;;;;;15.34;71.33;100933.84;5055507;28;45255;-70
2023/09/23 04:47:00;;;;;;;;;0.00;0.00;;;;;15.34;71.52;100938.38;5058540;28;45429;-70
2023/09/23 04:49:29;;;;;;;;;0.50;0.00;;;;;15.32;71.18;100933.06;5037642;28;46990;-70
2023/09/23 04:51:54;;;;;;;;;0.00;0.00;;;;;15.19;71.54;100922.03;5038522;28;45619;-70
2023/09/23 04:54:20;;;;;;;;;0.00;0.00;;;;;15.16;71.51;100922.16;5045348;28;45379;-70
2023/09/23 04:56:46;;;;;;;;;0.00;0.00;;;;;15.14;71.56;100934.81;5038399;28;45479;-70
2023/09/23 04:59:12;;;;;;;;;0.00;0.00;;;;;15.34;71.72;100967.97;5038277;28;45541;-70
2023/09/23 05:01:38;;;;;;;;;0.75;0.00;;;;;15.19;71.82;100945.38;5033187;28;46675;-70
2023/09/23 05:04:08;;;;;;;;;0.25;0.25;;;;;15.12;71.59;100941.25;5044511;28;45371;-70
2023/09/23 05:06:35;;;;;;;;;0.00;0.00;;;;;15.34;71.84;100981.41;5040326;28;45509;-70
2023/09/23 05:09:01;;;;;;;;;1.00;0.00;;;;;15.13;71.93;100954.59;5037443;28;47482;-70
2023/09/23 05:11:26;;;;;;;;;0.00;0.00;;;;;15.15;71.60;100965.25;5038200;28;45388;-70
2023/09/23 05:13:52;;;;;;;;;0.00;0.00;;;;;15.10;71.64;100952.06;5036958;28;45480;-70
2023/09/23 05:16:18;;;;;;;;;1.50;1.50;;;;;15.29;71.73;100992.38;5036868;28;45553;-70
2023/09/23 05:18:43;;;;;;;;;1.00;0.00;;;;;15.12;71.50;100971.69;5037770;28;45260;-70
2023/09/23 05:21:09;;;;;;;;;0.00;0.00;;;;;15.15;71.89;100976.03;5036435;28;45840;-70
2023/09/23 05:23:35;;;;;;;;;0.75;0.75;;;;;15.05;71.83;100966.66;5039150;28;45451;-70
2023/09/23 05:26:01;;;;;;;;;1.50;0.00;;;;;14.98;71.73;100969.66;5040162;28;45477;-70
2023/09/23 05:28:27;;;;;;;;;1.00;1.00;;;;;15.05;71.68;100975.63;5043004;28;47327;-70
2023/09/23 05:30:53;;;;;;;;;0.00;0.00;;;;;14.86;71.70;100955.91;5050650;28;45391;-70
2023/09/23 05:33:19;;;;;;;;;0.00;0.00;;;;;15.14;71.79;101004.75;5040957;28;45380;-70
2023/09/23 05:35:44;;;;;;;;;0.25;0.25;;;;;15.08;71.80;101010.41;5036919;28;45606;-70
2023/09/23 05:38:10;;;;;;;;;0.00;0.00;;;;;15.17;71.79;101026.09;5030534;28;48463;-70
2023/09/23 05:40:37;;;;;;;;;2.50;0.75;;;;;15.07;72.00;101010.47;5041285;28;45431;-70
2023/09/23 05:43:03;;;;;;;;;1.00;1.00;;;;;15.14;71.55;101033.44;5046365;28;45518;-70
2023/09/23 05:45:29;;;;;;;;;0.50;0.50;;;;;15.09;71.88;101033.66;5041553;28;45503;-70
2023/09/23 05:47:56;;;;;;;;;0.00;0.00;;;;;15.17;72.18;101058.38;5061196;28;45257;-70
2023/09/23 05:50:23;;;;;;;;;1.00;0.00;;;;;14.98;71.92;101031.47;5041140;28;45483;-70
2023/09/23 05:52:49;;;;;;;;;0.00;0.00;;;;;15.21;71.90;101067.16;5040482;28;45545;-70
2023/09/23 05:55:15;;;;;;;;;4.25;1.25;;;;;15.04;72.34;101046.44;5043776;28;45662;-70
2023/09/23 05:57:41;;;;;;;;;2.00;0.00;;;;;14.89;72.01;101026.50;5040790;28;46293;-70
2023/09/23 06:00:08;;;;;;;;;0.00;0.00;;;;;14.82;71.80;101017.00;5039171;28;45419;-70
2023/09/23 06:02:34;;;;;;;;;1.00;1.00;;;;;15.01;71.63;101049.28;5028182;28;45583;-70
2023/09/23 06:05:01;;;;;;;;;1.25;1.00;;;;;14.90;72.04;101040.81;5058037;28;45550;-70
2023/09/23 06:07:27;;;;;;;;;1.25;0.00;;;;;14.88;71.84;101040.88;5046979;28;45549;-70
2023/09/23 06:09:52;;;;;;;;;1.00;1.00;;;;;15.10;71.63;101073.06;5047806;28;45584;-70
2023/09/23 06:12:18;;;;;;;;;0.00;0.00;;;;;15.06;71.91;101073.25;5040690;28;45340;-70
2023/09/23 06:14:43;;;;;;;;;0.50;0.50;;;;;14.88;71.97;101031.97;5039955;28;45513;-70
2023/09/23 06:17:09;;;;;;;;;1.50;0.00;;;;;15.00;71.87;101069.91;5035877;28;48518;-70
2023/09/23 06:19:34;;;;;;;;;1.00;1.00;;;;;15.00;71.83;101069.03;5026636;28;45411;-70
2023/09/23 06:22:00;;;;;;;;;0.00;0.00;;;;;15.11;71.88;101082.00;5054910;28;45524;-70
2023/09/23 06:24:25;;;;;;;;;1.00;1.00;;;;;15.03;71.91;101073.41;5058251;28;45442;-70
2023/09/23 06:26:50;;;;;;;;;2.00;0.25;;;;;15.00;71.95;101074.41;5042313;28;46357;-70
2023/09/23 06:29:16;;;;;;;;;1.00;0.00;;;;;14.90;71.91;101065.91;5052230;28;45256;-70
2023/09/23 06:31:41;;;;;;;;;0.25;0.25;;;;;14.95;71.94;101077.31;5040551;28;45488;-70
2023/09/23 06:34:07;;;;;;;;;1.00;1.00;;;;;15.06;71.67;101089.41;5049674;28;45304;-70
2023/09/23 06:36:33;;;;;;;;;1.00;0.00;;;;;15.25;71.81;101116.31;5039828;28;47042;-70
2023/09/23 06:38:59;;;;;;;;;0.75;0.75;;;;;15.06;71.89;101092.09;5041501;28;45617;-70
2023/09/23 06:41:24;;;;;;;;;2.50;1.00;;;;;15.05;71.77;101095.69;5041989;28;45447;-70
2023/09/23 06:43:53;;;;;;;;;2.75;1.00;;;;;15.10;71.49;101105.31;5048931;28;45375;-70
2023/09/23 06:46:19;;;;;;;;;2.00;0.75;;;;;15.21;71.61;101120.09;5039407;28;47059;-70
2023/09/23 06:48:44;;;;;;;;;1.00;1.00;;;;;15.22;71.43;101127.19;5038996;28;46786;-67
2023/09/23 06:51:10;;;;;;;;;1.00;0.00;;;;;15.11;71.82;101106.19;5039762;28;45518;-68
2023/09/23 06:53:36;;;;;;;;;0.00;0.00;;;;;15.24;71.61;101134.25;5037735;28;45478;-68
2023/09/23 06:56:01;;;;;;;;;0.00;0.00;;;;;15.18;71.53;101123.78;5047735;28;45723;-79
2023/09/23 06:58:27;;;;;;;;;1.00;1.00;;;;;15.32;71.60;101145.53;5038296;28;45349;-80
2023/09/23 07:00:54;;;;;;;;;0.50;0.00;;;;;14.98;71.31;101096.00;5043810;28;45249;-70
2023/09/23 07:04:18;;;;;;;;;;;;;;;;;;;;;
2023/09/23 07:13:13;;;;;;;;;2.00;0.50;;;;;15.03;71.72;101124.47;5017963;28;45551;-72
2023/09/23 07:15:56;;;;;;;;;0.00;0.00;;;;;15.09;71.95;101143.91;5056496;28;45459;-71
2023/09/23 07:18:52;;;;;;;;;1.00;1.00;;;;;15.24;71.86;101168.34;5036122;28;45986;-72
2023/09/23 07:21:39;;;;;;;;;;;;;;;;;;;;;
2023/09/23 07:24:36;;;;;;;;;1.00;1.00;;;;;15.30;72.22;101187.78;5039812;28;68806;-72
2023/09/23 07:27:30;;;;;;;;;;;;;;;;;;;;;
2023/09/23 07:37:06;;;;;;;;;;;;;;;;;;;;;
2023/09/23 07:42:32;;;;;;;;;1.50;0.00;;;;;15.09;72.77;101173.47;5032289;28;45595;-72
2023/09/23 07:44:58;;;;;;;;;2.00;2.00;;;;;15.28;72.15;101192.34;5055660;28;45482;-72
2023/09/23 07:47:26;;;;;;;;;1.75;1.75;;;;;15.17;72.32;101174.00;5048288;28;45546;-72
2023/09/23 07:49:51;;;;;;;;;1.75;0.50;;;;;15.27;72.31;101192.41;5049270;28;45478;-69
2023/09/23 07:52:17;;;;;;;;;1.00;1.00;;;;;15.42;72.04;101212.34;5038009;28;47041;-69
2023/09/23 07:55:01;;;;;;;;;2.75;2.50;;;;;15.35;72.02;101206.38;5035635;28;45602;-70
2023/09/23 07:57:26;;;;;;;;;1.50;1.00;;;;;15.32;71.88;101196.66;5028521;28;45546;-71
2023/09/23 07:59:51;;;;;;;;;2.75;1.75;;;;;15.40;72.04;101200.81;5040247;28;46092;-70
2023/09/23 08:02:17;;;;;;;;;2.00;2.00;;;;;15.34;71.02;101200.13;5034510;28;46948;-70
2023/09/23 08:04:42;;;;;;;;;1.75;1.25;;;;;15.48;71.42;101218.34;5030850;28;45490;-70
2023/09/23 08:07:11;;;;;;;;;1.00;1.00;;;;;15.49;71.43;101219.22;5032806;28;45415;-70
2023/09/23 08:09:37;;;;;;;;;2.00;2.00;;;;;15.40;71.33;101206.19;5036861;28;45482;-70
2023/09/23 08:12:03;;;;;;;;;2.00;2.00;;;;;15.63;71.55;101257.13;5048675;28;46151;-70
2023/09/23 08:14:28;;;;;;;;;2.75;1.00;;;;;15.53;71.69;101231.59;5050871;28;45552;-70
2023/09/23 08:16:54;;;;;;;;;2.75;1.50;;;;;15.57;71.50;101244.84;5038986;28;45444;-70
2023/09/23 08:19:19;;;;;;;;;3.50;3.50;;;;;15.82;71.64;101269.78;5038289;28;46199;-71
2023/09/23 08:21:45;;;;;;;;;2.25;2.25;;;;;15.86;71.59;101283.03;5045436;28;46207;-71
2023/09/23 08:24:11;;;;;;;;;3.00;3.00;;;;;15.56;71.25;101236.84;5037319;28;45494;-70
2023/09/23 08:26:37;;;;;;;;;3.00;2.00;;;;;15.88;71.31;101291.91;5038952;28;45400;-70
2023/09/23 08:29:06;;;;;;;;;3.00;3.00;;;;;15.90;71.40;101291.84;5042605;28;45407;-71
2023/09/23 08:31:31;;;;;;;;;4.00;4.00;;;;;15.73;71.44;101263.84;5029676;28;48300;-71
2023/09/23 08:33:57;;;;;;;;;6.25;2.25;;;;;15.76;71.61;101270.94;5056571;28;45436;-71
2023/09/23 08:36:22;;;;;;;;;3.50;3.00;;;;;15.77;71.31;101270.00;5054788;28;45462;-71
2023/09/23 08:38:47;;;;;;;;;6.00;4.00;;;;;15.67;71.69;101257.84;5058658;28;45390;-71
2023/09/23 08:41:18;;;;;;;;;5.25;3.00;;;;;15.89;71.49;101293.66;5040298;28;47675;-70
2023/09/23 08:43:45;;;;;;;;;2.00;2.00;;;;;15.92;71.03;101289.94;5051881;28;45766;-70
2023/09/23 08:46:11;;;;;;;;;2.50;2.00;;;;;16.01;71.15;101312.91;5047111;28;45425;-70
2023/09/23 08:48:38;;;;;;;;;3.00;3.00;;;;;15.96;71.06;101306.84;5020282;28;45344;-70
2023/09/23 08:51:08;;;;;;;;;3.00;2.50;;;;;15.92;71.22;101298.91;5038321;28;45399;-70
2023/09/23 08:53:37;;;;;;;;;2.50;2.25;;;;;15.95;71.16;101294.31;5038115;28;45482;-70
2023/09/23 08:56:05;;;;;;;;;2.00;2.00;;;;;15.96;70.56;101298.78;5046509;28;45272;-70
2023/09/23 08:58:31;;;;;;;;;4.25;3.00;;;;;16.03;70.23;101300.22;5057895;28;45591;-70
2023/09/23 09:00:56;;;;;;;;;2.50;2.50;;;;;16.22;70.44;101329.84;5037036;28;48137;-70
2023/09/23 09:03:22;;;;;;;;;1.75;1.50;;;;;16.10;70.50;101310.66;5030163;28;45577;-70
2023/09/23 09:05:48;;;;;;;;;2.00;1.00;;;;;16.29;70.36;101334.91;5042519;28;45535;-70
2023/09/23 09:08:14;;;;;;;;;3.25;2.00;;;;;16.22;70.58;101317.28;5024480;28;45609;-70
2023/09/23 09:10:40;;;;;;;;;2.00;0.75;;;;;16.38;70.13;101340.81;5054147;28;45452;-70
2023/09/23 09:13:06;;;;;;;;;1.00;1.00;;;;;16.47;70.51;101357.41;5042894;28;45395;-70
2023/09/23 09:15:35;;;;;;;;;2.00;2.00;;;;;16.45;69.99;101348.50;5040749;28;45471;-70
2023/09/23 09:18:02;;;;;;;;;2.25;1.00;;;;;16.32;69.81;101331.19;5040142;28;45479;-71
2023/09/23 09:20:30;;;;;;;;;2.75;2.00;;;;;16.29;69.65;101310.66;5040045;28;45866;-70
2023/09/23 09:22:56;;;;;;;;;1.00;1.00;;;;;16.29;69.28;101318.75;5051276;28;45294;-70
2023/09/23 09:25:22;;;;;;;;;2.00;2.00;;;;;16.42;69.11;101339.69;5041328;28;45517;-70
2023/09/23 09:27:48;;;;;;;;;3.00;2.00;;;;;16.48;69.12;101328.66;5041583;28;45431;-70
2023/09/23 09:30:14;;;;;;;;;1.00;1.00;;;;;16.45;69.25;101329.66;5041113;28;46233;-70
2023/09/23 09:32:42;;;;;;;;;3.50;0.25;;;;;16.64;69.64;101344.97;5039726;28;45396;-70
2023/09/23 09:35:20;;;;;;;;;0.00;0.00;;;;;16.37;69.46;101299.53;5043952;28;45487;-70
2023/09/23 09:37:48;;;;;;;;;1.50;1.00;;;;;16.65;69.14;101336.78;5061470;28;45439;-70
2023/09/23 09:40:17;;;;;;;;;2.75;1.00;;;;;16.61;69.72;101324.41;5061488;28;45637;-70
2023/09/23 09:42:57;;;;;;;;;0.50;0.50;;;;;16.67;69.50;101337.59;5034888;28;45408;-70
2023/09/23 09:45:23;;;;;;;;;1.00;1.00;;;;;16.65;69.35;101322.44;5044715;28;45501;-70
2023/09/23 09:47:53;;;;;;;;;1.00;1.00;;;;;16.73;68.69;101330.16;5043125;28;45488;-70
2023/09/23 09:50:19;;;;;;;;;1.75;1.75;;;;;16.93;68.80;101356.19;5040807;28;46302;-70
2023/09/23 09:52:45;;;;;;;;;4.00;2.00;;;;;16.78;68.62;101330.81;5049088;28;45593;-70
2023/09/23 09:55:15;;;;;;;;;1.75;1.00;;;;;16.82;68.82;101335.09;5041093;28;45484;-70
2023/09/23 09:57:41;;;;;;;;;3.50;1.75;;;;;16.68;68.72;101309.69;5040297;28;45508;-70
2023/09/23 10:00:15;;;;;;;;;1.00;1.00;;;;;16.78;68.04;101320.03;5050932;28;45415;-70
2023/09/23 10:02:42;;;;;;;;;3.00;2.00;;;;;16.89;68.11;101333.00;5050105;28;45465;-70
2023/09/23 10:05:14;;;;;;;;;0.75;0.75;;;;;16.91;68.16;101333.81;5038961;28;45367;-70
2023/09/23 10:07:56;;;;;;;;;2.00;1.00;;;;;17.09;67.88;101367.06;5038718;28;46922;-70
2023/09/23 10:10:36;;;;;;;;;1.00;1.00;;;;;16.89;67.57;101333.88;5020960;28;47186;-69
2023/09/23 10:13:11;;;;;;;;;3.50;1.75;;;;;17.00;67.57;101346.81;5040380;28;45458;-70
2023/09/23 10:15:38;;;;;;;;;2.00;1.00;;;;;16.98;67.40;101344.19;5053551;28;45445;-70
2023/09/23 10:18:13;;;;;;;;;1.25;0.00;;;;;17.01;67.00;101337.78;5032055;28;45513;-70
2023/09/23 10:20:56;;;;;;;;;2.00;1.00;;;;;17.23;67.17;101376.22;5040731;28;47573;-70
2023/09/23 10:23:22;;;;;;;;;1.50;1.00;;;;;17.01;66.57;101338.66;5060570;28;45467;-70
2023/09/23 10:25:52;;;;;;;;;2.00;2.00;;;;;17.28;66.36;101386.78;5026727;28;45435;-70
2023/09/23 10:28:22;;;;;;;;;1.00;0.00;;;;;17.18;66.72;101356.69;5041405;28;45514;-70
2023/09/23 10:31:05;;;;;;;;;2.00;2.00;;;;;17.23;66.16;101367.25;5050901;28;45581;-70
2023/09/23 10:33:34;;;;;;;;;2.00;2.00;;;;;17.21;66.16;101361.06;5040099;28;45602;-70
2023/09/23 10:36:05;;;;;;;;;2.50;2.00;;;;;17.30;65.53;101365.13;5047539;28;45500;-70
2023/09/23 10:38:38;;;;;;;;;2.00;1.00;;;;;17.28;65.24;101364.34;5039765;28;45597;-70
2023/09/23 10:41:04;;;;;;;;;2.00;1.00;;;;;17.30;65.45;101357.88;5047656;28;45533;-70
2023/09/23 10:43:31;;;;;;;;;2.00;2.00;;;;;17.31;65.45;101359.66;5042937;28;45464;-70
2023/09/23 10:45:58;;;;;;;;;0.75;0.75;;;;;17.50;65.57;101385.69;5040281;28;45517;-71
2023/09/23 10:48:26;;;;;;;;;1.00;1.00;;;;;17.56;65.36;101399.75;5037119;28;45573;-70
2023/09/23 10:50:51;;;;;;;;;1.25;1.00;;;;;17.59;65.12;101398.69;5053035;28;45264;-70
2023/09/23 10:53:21;;;;;;;;;3.00;3.00;;;;;17.38;65.65;101369.16;5038526;28;45515;-70
2023/09/23 10:55:47;;;;;;;;;2.00;2.00;;;;;17.27;65.67;101341.84;5053851;28;45430;-70
2023/09/23 10:58:12;;;;;;;;;2.00;0.25;;;;;17.52;64.91;101376.56;5033765;28;46013;-69
2023/09/23 11:00:39;;;;;;;;;1.00;1.00;;;;;17.66;64.75;101399.25;5034742;28;46428;-69
2023/09/23 11:03:09;;;;;;;;;2.00;0.25;;;;;17.69;64.39;101388.31;5021769;28;45629;-70
2023/09/23 11:05:38;;;;;;;;;3.00;1.00;;;;;17.56;64.22;101378.16;5039732;28;45312;-70
2023/09/23 11:08:10;;;;;;;;;1.00;0.00;;;;;17.68;64.97;101395.53;5044381;28;45479;-70
2023/09/23 11:10:39;;;;;;;;;1.00;1.00;;;;;17.62;65.20;101371.56;5039722;28;46734;-70
2023/09/23 11:13:06;;;;;;;;;7.00;1.00;;;;;17.53;64.30;101351.31;5049012;28;45491;-69
2023/09/23 11:15:32;;;;;;;;;1.00;1.00;;;;;17.64;65.08;101368.78;5041592;28;45381;-70
2023/09/23 11:17:57;;;;;;;;;2.25;2.00;;;;;17.69;64.17;101381.09;5052535;28;45371;-71
2023/09/23 11:20:31;;;;;;;;;1.00;1.00;;;;;17.74;64.05;101378.13;5040921;28;46359;-70
2023/09/23 11:22:58;;;;;;;;;4.00;2.00;;;;;17.77;63.97;101381.59;5042496;28;45832;-70
2023/09/23 11:25:24;;;;;;;;;1.50;1.25;;;;;17.76;63.67;101378.97;5039793;28;45375;-70
2023/09/23 11:28:19;;;;;;;;;2.25;1.25;;;;;18.01;63.31;101415.47;5037318;28;45336;-70
2023/09/23 11:30:36;;;;;;;;;2.00;2.00;;;;;17.80;63.15;101383.22;5037632;28;45672;-70
2023/09/23 11:33:01;;;;;;;;;2.00;1.00;;;;;17.95;63.17;101397.78;5040239;28;45422;-69
2023/09/23 11:35:27;;;;;;;;;1.00;0.25;;;;;17.95;62.69;101400.50;5041251;28;45276;-69
2023/09/23 11:37:54;;;;;;;;;1.00;1.00;;;;;18.13;62.28;101429.22;5032704;28;45552;-70
2023/09/23 11:40:19;;;;;;;;;1.00;1.00;;;;;18.14;61.41;101430.97;5039325;28;46343;-69
2023/09/23 11:42:45;;;;;;;;;1.00;1.00;;;;;17.98;61.44;101405.72;5041011;28;45459;-70
2023/09/23 11:45:10;;;;;;;;;1.50;0.50;;;;;17.92;61.27;101396.09;5045538;28;45383;-70
2023/09/23 11:47:36;;;;;;;;;4.00;2.00;;;;;17.85;61.43;101383.84;5044928;28;45665;-70
2023/09/23 11:50:05;;;;;;;;;1.00;1.00;;;;;17.92;60.75;101401.50;5045747;28;46252;-70
2023/09/23 11:52:31;;;;;;;;;2.00;1.00;;;;;17.94;61.21;101409.53;5040998;28;45713;-70